sensor_id;sensor_type;location;lat;lon;timestamp;pressure;altitude;pressure_sealevel;temperature;humidity
54592;BME280;40488;48.558;18.150;2024-03-29T00:01:40;98639.22;;;8.22;77.89
54592;BME280;40488;48.558;18.150;2024-03-29T00:04:07;98634.25;;;8.06;79.05
54592;BME280;40488;48.558;18.150;2024-03-29T00:06:34;98632.75;;;7.84;79.91
54592;BME280;40488;48.558;18.150;2024-03-29T00:09:00;98638.72;;;7.77;79.75
54592;BME280;40488;48.558;18.150;2024-03-29T00:11:27;98652.28;;;7.70;80.09
54592;BME280;40488;48.558;18.150;2024-03-29T00:13:54;98668.41;;;7.63;80.75
54592;BME280;40488;48.558;18.150;2024-03-29T00:16:22;98665.88;;;7.59;80.99
54592;BME280;40488;48.558;18.150;2024-03-29T00:18:48;98675.25;;;7.49;81.60
54592;BME280;40488;48.558;18.150;2024-03-29T00:21:15;98677.81;;;7.43;81.51
54592;BME280;40488;48.558;18.150;2024-03-29T00:23:42;98682.06;;;7.38;81.78
54592;BME280;40488;48.558;18.150;2024-03-29T00:26:08;98690.56;;;7.34;82.80
54592;BME280;40488;48.558;18.150;2024-03-29T00:28:35;98684.59;;;7.39;82.32
54592;BME280;40488;48.558;18.150;2024-03-29T00:31:01;98687.09;;;7.47;82.43
54592;BME280;40488;48.558;18.150;2024-03-29T00:33:30;98697.22;;;7.56;83.48
54592;BME280;40488;48.558;18.150;2024-03-29T00:35:56;98692.19;;;7.44;82.78
54592;BME280;40488;48.558;18.150;2024-03-29T00:38:23;98720.94;;;7.52;82.60
54592;BME280;40488;48.558;18.150;2024-03-29T00:40:50;98743.75;;;7.54;82.98
54592;BME280;40488;48.558;18.150;2024-03-29T00:43:17;98749.69;;;7.57;82.60
54592;BME280;40488;48.558;18.150;2024-03-29T00:45:44;98753.09;;;7.50;82.69
54592;BME280;40488;48.558;18.150;2024-03-29T00:48:10;98762.41;;;7.47;82.07
54592;BME280;40488;48.558;18.150;2024-03-29T00:50:38;98757.38;;;7.37;82.53
54592;BME280;40488;48.558;18.150;2024-03-29T00:53:05;98773.41;;;7.44;82.09
54592;BME280;40488;48.558;18.150;2024-03-29T00:55:32;98775.94;;;7.47;82.46
54592;BME280;40488;48.558;18.150;2024-03-29T00:57:58;98778.47;;;7.44;82.49
54592;BME280;40488;48.558;18.150;2024-03-29T01:00:25;98786.16;;;7.36;82.80
54592;BME280;40488;48.558;18.150;2024-03-29T01:02:51;98772.66;;;7.19;82.18
54592;BME280;40488;48.558;18.150;2024-03-29T01:05:18;98788.72;;;7.17;81.86
54592;BME280;40488;48.558;18.150;2024-03-29T01:07:46;98787.88;;;7.12;81.87
54592;BME280;40488;48.558;18.150;2024-03-29T01:10:13;98791.25;;;7.03;81.80
54592;BME280;40488;48.558;18.150;2024-03-29T01:12:39;98791.28;;;6.96;82.18
54592;BME280;40488;48.558;18.150;2024-03-29T01:15:06;98781.97;;;6.92;81.96
54592;BME280;40488;48.558;18.150;2024-03-29T01:17:33;98790.44;;;6.85;81.87
54592;BME280;40488;48.558;18.150;2024-03-29T01:19:59;98796.34;;;6.81;81.94
54592;BME280;40488;48.558;18.150;2024-03-29T01:22:26;98803.97;;;6.71;81.88
54592;BME280;40488;48.558;18.150;2024-03-29T01:24:55;98806.50;;;6.59;81.72
54592;BME280;40488;48.558;18.150;2024-03-29T01:27:22;98820.84;;;6.59;81.89
54592;BME280;40488;48.558;18.150;2024-03-29T01:29:48;98825.94;;;6.63;81.97
54592;BME280;40488;48.558;18.150;2024-03-29T01:32:15;98826.78;;;6.59;82.32
54592;BME280;40488;48.558;18.150;2024-03-29T01:34:41;98828.47;;;6.57;82.28
54592;BME280;40488;48.558;18.150;2024-03-29T01:37:08;98816.63;;;6.47;82.31
54592;BME280;40488;48.558;18.150;2024-03-29T01:39:35;98822.50;;;6.43;82.31
54592;BME280;40488;48.558;18.150;2024-03-29T01:42:03;98824.19;;;6.35;82.61
54592;BME280;40488;48.558;18.150;2024-03-29T01:44:30;98822.50;;;6.28;81.96
54592;BME280;40488;48.558;18.150;2024-03-29T01:46:58;98822.47;;;6.22;82.08
54592;BME280;40488;48.558;18.150;2024-03-29T01:49:26;98821.63;;;6.25;82.30
54592;BME280;40488;48.558;18.150;2024-03-29T01:51:54;98830.97;;;6.33;82.25
54592;BME280;40488;48.558;18.150;2024-03-29T01:54:22;98840.25;;;6.39;82.27
54592;BME280;40488;48.558;18.150;2024-03-29T01:56:50;98835.19;;;6.49;82.81
54592;BME280;40488;48.558;18.150;2024-03-29T01:59:20;98840.28;;;6.49;82.22
54592;BME280;40488;48.558;18.150;2024-03-29T02:01:47;98851.22;;;6.39;81.96
54592;BME280;40488;48.558;18.150;2024-03-29T02:04:15;98853.75;;;6.36;82.51
54592;BME280;40488;48.558;18.150;2024-03-29T02:06:43;98846.16;;;6.42;82.19
54592;BME280;40488;48.558;18.150;2024-03-29T02:09:11;98839.38;;;6.38;82.55
54592;BME280;40488;48.558;18.150;2024-03-29T02:11:38;98861.41;;;6.45;81.95
54592;BME280;40488;48.558;18.150;2024-03-29T02:14:06;98860.53;;;6.45;81.92
54592;BME280;40488;48.558;18.150;2024-03-29T02:16:34;98861.38;;;6.33;81.22
54592;BME280;40488;48.558;18.150;2024-03-29T02:19:04;98868.94;;;6.30;81.47
54592;BME280;40488;48.558;18.150;2024-03-29T02:21:33;98852.81;;;6.10;81.78
54592;BME280;40488;48.558;18.150;2024-03-29T02:24:08;98879.91;;;6.26;81.52
54592;BME280;40488;48.558;18.150;2024-03-29T02:26:36;98878.19;;;6.19;81.25
54592;BME280;40488;48.558;18.150;2024-03-29T02:29:08;98884.94;;;6.20;81.22
54592;BME280;40488;48.558;18.150;2024-03-29T02:31:35;98885.78;;;6.19;81.30
54592;BME280;40488;48.558;18.150;2024-03-29T02:34:03;98885.78;;;6.19;81.02
54592;BME280;40488;48.558;18.150;2024-03-29T02:36:31;98876.44;;;6.03;81.04
54592;BME280;40488;48.558;18.150;2024-03-29T02:38:59;98896.69;;;6.03;81.26
54592;BME280;40488;48.558;18.150;2024-03-29T02:41:28;98903.41;;;5.98;81.37
54592;BME280;40488;48.558;18.150;2024-03-29T02:43:56;98906.75;;;5.85;80.86
54592;BME280;40488;48.558;18.150;2024-03-29T02:46:24;98916.78;;;5.76;81.06
54592;BME280;40488;48.558;18.150;2024-03-29T02:48:52;98914.19;;;5.64;80.92
54592;BME280;40488;48.558;18.150;2024-03-29T02:51:19;98914.03;;;5.46;80.99
54592;BME280;40488;48.558;18.150;2024-03-29T02:53:47;98936.78;;;5.39;81.19
54592;BME280;40488;48.558;18.150;2024-03-29T02:56:13;98946.81;;;5.27;81.31
54592;BME280;40488;48.558;18.150;2024-03-29T02:58:46;98956.09;;;5.31;81.65
54592;BME280;40488;48.558;18.150;2024-03-29T03:01:13;98954.47;;;5.38;81.66
54592;BME280;40488;48.558;18.150;2024-03-29T03:03:40;98954.44;;;5.32;81.45
54592;BME280;40488;48.558;18.150;2024-03-29T03:06:07;98966.84;;;5.09;81.45
54592;BME280;40488;48.558;18.150;2024-03-29T03:08:35;98965.19;;;5.08;82.01
54592;BME280;40488;48.558;18.150;2024-03-29T03:11:20;98959.50;;;5.33;82.56
54592;BME280;40488;48.558;18.150;2024-03-29T03:13:49;98933.34;;;5.31;83.08
54592;BME280;40488;48.558;18.150;2024-03-29T03:16:18;98946.94;;;5.44;82.79
54592;BME280;40488;48.558;18.150;2024-03-29T03:18:45;98939.38;;;5.50;82.74
54592;BME280;40488;48.558;18.150;2024-03-29T03:21:13;98938.56;;;5.53;82.55
54592;BME280;40488;48.558;18.150;2024-03-29T03:23:40;98935.13;;;5.48;82.56
54592;BME280;40488;48.558;18.150;2024-03-29T03:26:08;98936.75;;;5.38;82.20
54592;BME280;40488;48.558;18.150;2024-03-29T03:28:34;98939.19;;;5.23;82.04
54592;BME280;40488;48.558;18.150;2024-03-29T03:31:04;98948.38;;;5.13;82.26
54592;BME280;40488;48.558;18.150;2024-03-29T03:33:34;98938.25;;;5.13;81.99
54592;BME280;40488;48.558;18.150;2024-03-29T03:36:01;98955.94;;;5.12;82.34
54592;BME280;40488;48.558;18.150;2024-03-29T03:38:28;98960.97;;;5.10;82.54
54592;BME280;40488;48.558;18.150;2024-03-29T03:40:56;98973.66;;;5.13;82.46
54592;BME280;40488;48.558;18.150;2024-03-29T03:43:23;98979.56;;;5.17;82.39
54592;BME280;40488;48.558;18.150;2024-03-29T03:45:51;98971.13;;;5.13;82.16
54592;BME280;40488;48.558;18.150;2024-03-29T03:48:19;98966.94;;;5.15;82.67
54592;BME280;40488;48.558;18.150;2024-03-29T03:50:47;98965.22;;;5.13;82.63
54592;BME280;40488;48.558;18.150;2024-03-29T03:53:13;98966.91;;;5.12;82.34
54592;BME280;40488;48.558;18.150;2024-03-29T03:55:41;98957.59;;;5.08;82.34
54592;BME280;40488;48.558;18.150;2024-03-29T03:58:08;98970.25;;;5.11;82.83
54592;BME280;40488;48.558;18.150;2024-03-29T04:00:35;98976.97;;;5.09;82.64
54592;BME280;40488;48.558;18.150;2024-03-29T04:03:02;98973.59;;;5.07;82.65
54592;BME280;40488;48.558;18.150;2024-03-29T04:05:32;98973.63;;;5.10;82.86
54592;BME280;40488;48.558;18.150;2024-03-29T04:07:59;98975.28;;;5.08;82.62
54592;BME280;40488;48.558;18.150;2024-03-29T04:10:27;98980.34;;;5.11;82.95
54592;BME280;40488;48.558;18.150;2024-03-29T04:12:54;98978.66;;;5.07;83.27
54592;BME280;40488;48.558;18.150;2024-03-29T04:15:21;98987.91;;;5.04;82.97
54592;BME280;40488;48.558;18.150;2024-03-29T04:17:48;99003.03;;;5.01;83.01
54592;BME280;40488;48.558;18.150;2024-03-29T04:20:16;99020.78;;;5.05;83.14
54592;BME280;40488;48.558;18.150;2024-03-29T04:22:44;99027.50;;;5.06;82.91
54592;BME280;40488;48.558;18.150;2024-03-29T04:25:12;99006.31;;;4.94;82.91
54592;BME280;40488;48.558;18.150;2024-03-29T04:27:38;99012.25;;;4.94;83.35
54592;BME280;40488;48.558;18.150;2024-03-29T04:30:07;99018.84;;;4.82;82.60
54592;BME280;40488;48.558;18.150;2024-03-29T04:32:34;99027.94;;;4.70;82.32
54592;BME280;40488;48.558;18.150;2024-03-29T04:35:02;99030.41;;;4.63;82.40
54592;BME280;40488;48.558;18.150;2024-03-29T04:37:29;99024.41;;;4.55;82.61
54592;BME280;40488;48.558;18.150;2024-03-29T04:39:58;99043.81;;;4.59;82.81
54592;BME280;40488;48.558;18.150;2024-03-29T04:42:26;99051.34;;;4.53;82.94
54592;BME280;40488;48.558;18.150;2024-03-29T04:44:53;99065.69;;;4.55;82.92
54592;BME280;40488;48.558;18.150;2024-03-29T04:47:21;99072.47;;;4.61;83.13
54592;BME280;40488;48.558;18.150;2024-03-29T04:49:49;99070.91;;;4.69;83.77
54592;BME280;40488;48.558;18.150;2024-03-29T04:52:17;99067.56;;;4.73;83.82
54592;BME280;40488;48.558;18.150;2024-03-29T04:54:44;99055.84;;;4.75;83.83
54592;BME280;40488;48.558;18.150;2024-03-29T04:57:14;99057.50;;;4.76;83.47
54592;BME280;40488;48.558;18.150;2024-03-29T04:59:41;99052.56;;;4.84;83.76
54592;BME280;40488;48.558;18.150;2024-03-29T05:02:09;99056.03;;;4.93;83.76
54592;BME280;40488;48.558;18.150;2024-03-29T05:04:37;99054.38;;;4.97;83.39
54592;BME280;40488;48.558;18.150;2024-03-29T05:07:04;99062.09;;;5.06;83.67
54592;BME280;40488;48.558;18.150;2024-03-29T05:09:32;99052.91;;;5.15;83.58
54592;BME280;40488;48.558;18.150;2024-03-29T05:11:59;99052.91;;;5.15;83.27
54592;BME280;40488;48.558;18.150;2024-03-29T05:14:28;99069.81;;;5.19;83.63
54592;BME280;40488;48.558;18.150;2024-03-29T05:16:56;99070.75;;;5.27;83.76
54592;BME280;40488;48.558;18.150;2024-03-29T05:19:23;99077.56;;;5.36;83.52
54592;BME280;40488;48.558;18.150;2024-03-29T05:21:51;99079.38;;;5.48;83.61
54592;BME280;40488;48.558;18.150;2024-03-29T05:24:19;99075.25;;;5.56;83.57
54592;BME280;40488;48.558;18.150;2024-03-29T05:26:47;99087.91;;;5.57;83.72
54592;BME280;40488;48.558;18.150;2024-03-29T05:29:15;99087.97;;;5.65;83.96
54592;BME280;40488;48.558;18.150;2024-03-29T05:31:44;99082.19;;;5.78;83.73
54592;BME280;40488;48.558;18.150;2024-03-29T05:34:12;99099.19;;;5.88;83.91
54592;BME280;40488;48.558;18.150;2024-03-29T05:36:40;99098.41;;;5.96;83.33
54592;BME280;40488;48.558;18.150;2024-03-29T05:39:10;99104.44;;;6.09;83.20
54592;BME280;40488;48.558;18.150;2024-03-29T05:41:37;99096.00;;;6.13;83.42
54592;BME280;40488;48.558;18.150;2024-03-29T05:44:05;99102.88;;;6.26;83.36
54592;BME280;40488;48.558;18.150;2024-03-29T05:46:33;99097.88;;;6.38;83.49
54592;BME280;40488;48.558;18.150;2024-03-29T05:49:02;99105.53;;;6.49;82.78
54592;BME280;40488;48.558;18.150;2024-03-29T05:51:30;99094.63;;;6.60;82.94
54592;BME280;40488;48.558;18.150;2024-03-29T05:53:58;99082.81;;;6.65;82.40
54592;BME280;40488;48.558;18.150;2024-03-29T05:56:25;99085.44;;;6.82;82.26
54592;BME280;40488;48.558;18.150;2024-03-29T05:58:53;99089.72;;;6.91;82.47
54592;BME280;40488;48.558;18.150;2024-03-29T06:01:21;99087.25;;;7.07;81.94
54592;BME280;40488;48.558;18.150;2024-03-29T06:03:50;99081.34;;;7.16;81.70
54592;BME280;40488;48.558;18.150;2024-03-29T06:06:20;99083.09;;;7.29;80.84
54592;BME280;40488;48.558;18.150;2024-03-29T06:08:50;99080.53;;;7.26;80.96
54592;BME280;40488;48.558;18.150;2024-03-29T06:11:18;99073.78;;;7.41;80.72
54592;BME280;40488;48.558;18.150;2024-03-29T06:13:46;99079.75;;;7.57;80.94
54592;BME280;40488;48.558;18.150;2024-03-29T06:16:31;99095.00;;;7.90;81.14
54592;BME280;40488;48.558;18.150;2024-03-29T06:19:16;99090.78;;;8.03;80.49
54592;BME280;40488;48.558;18.150;2024-03-29T06:21:45;99097.56;;;8.13;80.47
54592;BME280;40488;48.558;18.150;2024-03-29T06:24:13;99094.16;;;8.23;80.17
54592;BME280;40488;48.558;18.150;2024-03-29T06:26:42;99099.25;;;8.06;79.37
54592;BME280;40488;48.558;18.150;2024-03-29T06:29:10;99101.81;;;8.03;79.96
54592;BME280;40488;48.558;18.150;2024-03-29T06:31:38;99118.72;;;8.04;79.95
54592;BME280;40488;48.558;18.150;2024-03-29T06:34:05;99133.13;;;8.16;80.25
54592;BME280;40488;48.558;18.150;2024-03-29T06:36:33;99131.47;;;8.39;79.42
54592;BME280;40488;48.558;18.150;2024-03-29T06:39:03;99111.94;;;8.50;79.52
54592;BME280;40488;48.558;18.150;2024-03-29T06:41:31;99106.84;;;8.58;79.19
54592;BME280;40488;48.558;18.150;2024-03-29T06:43:59;99112.75;;;8.75;79.02
54592;BME280;40488;48.558;18.150;2024-03-29T06:46:26;99119.50;;;8.81;78.51
54592;BME280;40488;48.558;18.150;2024-03-29T06:48:54;99128.81;;;8.86;78.76
54592;BME280;40488;48.558;18.150;2024-03-29T06:51:22;99135.63;;;8.87;77.63
54592;BME280;40488;48.558;18.150;2024-03-29T06:53:50;99126.22;;;9.03;77.16
54592;BME280;40488;48.558;18.150;2024-03-29T13:48:31;98842.34;;;16.37;61.60
54592;BME280;40488;48.558;18.150;2024-03-29T13:50:59;98836.31;;;16.38;61.74
54592;BME280;40488;48.558;18.150;2024-03-29T13:53:27;98847.41;;;16.39;62.26
54592;BME280;40488;48.558;18.150;2024-03-29T13:56:01;98849.22;;;16.37;62.59
54592;BME280;40488;48.558;18.150;2024-03-29T13:58:30;98842.41;;;16.36;62.69
54592;BME280;40488;48.558;18.150;2024-03-29T14:00:58;98838.25;;;16.32;62.96
54592;BME280;40488;48.558;18.150;2024-03-29T14:03:27;98839.88;;;16.34;63.59
54592;BME280;40488;48.558;18.150;2024-03-29T14:05:56;98831.97;;;16.39;63.85
54592;BME280;40488;48.558;18.150;2024-03-29T14:08:24;98829.47;;;16.37;63.81
54592;BME280;40488;48.558;18.150;2024-03-29T14:10:52;98816.53;;;16.39;63.86
54592;BME280;40488;48.558;18.150;2024-03-29T14:13:19;98822.47;;;16.41;64.03
54592;BME280;40488;48.558;18.150;2024-03-29T14:15:47;98809.59;;;16.41;63.82
54592;BME280;40488;48.558;18.150;2024-03-29T14:18:15;98818.09;;;16.43;63.97
54592;BME280;40488;48.558;18.150;2024-03-29T14:20:43;98826.50;;;16.48;64.12
54592;BME280;40488;48.558;18.150;2024-03-29T14:23:12;98828.84;;;16.54;64.07
54592;BME280;40488;48.558;18.150;2024-03-29T14:25:44;98809.19;;;16.51;64.33
54592;BME280;40488;48.558;18.150;2024-03-29T14:28:12;98822.56;;;16.61;64.10
54592;BME280;40488;48.558;18.150;2024-03-29T14:30:40;98827.59;;;16.64;64.25
54592;BME280;40488;48.558;18.150;2024-03-29T14:33:07;98817.19;;;16.67;64.14
54592;BME280;40488;48.558;18.150;2024-03-29T14:35:35;98820.44;;;16.72;63.95
54592;BME280;40488;48.558;18.150;2024-03-29T14:38:03;98792.41;;;16.63;64.25
54592;BME280;40488;48.558;18.150;2024-03-29T14:40:32;98801.25;;;16.79;64.51
54592;BME280;40488;48.558;18.150;2024-03-29T14:43:00;98805.25;;;16.86;65.10
54592;BME280;40488;48.558;18.150;2024-03-29T14:45:28;98793.91;;;16.90;65.04
54592;BME280;40488;48.558;18.150;2024-03-29T14:47:56;98788.53;;;16.96;65.37
54592;BME280;40488;48.558;18.150;2024-03-29T14:50:22;98793.41;;;17.02;65.09
54592;BME280;40488;48.558;18.150;2024-03-29T14:52:50;98791.69;;;17.03;65.05
54592;BME280;40488;48.558;18.150;2024-03-29T14:55:18;98795.09;;;17.03;65.08
54592;BME280;40488;48.558;18.150;2024-03-29T14:57:47;98781.28;;;17.04;65.89
54592;BME280;40488;48.558;18.150;2024-03-29T15:00:16;98780.84;;;17.15;65.32
54592;BME280;40488;48.558;18.150;2024-03-29T15:02:44;98778.72;;;17.24;64.72
54592;BME280;40488;48.558;18.150;2024-03-29T15:05:13;98771.75;;;17.26;65.14
54592;BME280;40488;48.558;18.150;2024-03-29T15:07:40;98768.16;;;17.30;65.17
54592;BME280;40488;48.558;18.150;2024-03-29T15:10:09;98762.75;;;17.36;64.70
54592;BME280;40488;48.558;18.150;2024-03-29T15:12:37;98747.25;;;17.36;63.91
54592;BME280;40488;48.558;18.150;2024-03-29T15:15:07;98748.91;;;17.37;63.54
54592;BME280;40488;48.558;18.150;2024-03-29T15:17:35;98754.06;;;17.37;64.03
54592;BME280;40488;48.558;18.150;2024-03-29T15:20:03;98725.47;;;17.23;63.81
54592;BME280;40488;48.558;18.150;2024-03-29T15:22:32;98746.97;;;17.42;63.63
54592;BME280;40488;48.558;18.150;2024-03-29T15:25:00;98745.03;;;17.48;63.64
54592;BME280;40488;48.558;18.150;2024-03-29T15:27:27;98751.66;;;17.55;63.64
54592;BME280;40488;48.558;18.150;2024-03-29T15:30:23;98749.78;;;17.58;63.45
54592;BME280;40488;48.558;18.150;2024-03-29T15:32:50;98751.22;;;17.64;63.33
54592;BME280;40488;48.558;18.150;2024-03-29T15:35:18;98742.72;;;17.62;63.47
54592;BME280;40488;48.558;18.150;2024-03-29T15:37:46;98734.22;;;17.60;63.49
54592;BME280;40488;48.558;18.150;2024-03-29T15:40:14;98738.03;;;17.51;63.67
54592;BME280;40488;48.558;18.150;2024-03-29T15:42:42;98730.41;;;17.48;63.51
54592;BME280;40488;48.558;18.150;2024-03-29T15:45:10;98728.94;;;17.42;63.82
54592;BME280;40488;48.558;18.150;2024-03-29T15:47:39;98708.19;;;17.25;63.65
54592;BME280;40488;48.558;18.150;2024-03-29T15:50:07;98720.88;;;17.30;64.06
54592;BME280;40488;48.558;18.150;2024-03-29T15:52:35;98728.56;;;17.31;63.46
54592;BME280;40488;48.558;18.150;2024-03-29T15:55:04;98730.22;;;17.32;63.52
54592;BME280;40488;48.558;18.150;2024-03-29T15:57:32;98728.44;;;17.34;63.66
54592;BME280;40488;48.558;18.150;2024-03-29T16:00:00;98721.59;;;17.33;63.93
54592;BME280;40488;48.558;18.150;2024-03-29T16:02:46;98730.38;;;17.29;63.74
54592;BME280;40488;48.558;18.150;2024-03-29T16:05:15;98722.75;;;17.26;63.93
54592;BME280;40488;48.558;18.150;2024-03-29T16:07:45;98720.44;;;17.20;64.26
54592;BME280;40488;48.558;18.150;2024-03-29T16:10:12;98722.97;;;17.22;64.17
54592;BME280;40488;48.558;18.150;2024-03-29T16:12:40;98724.69;;;17.21;64.40
54592;BME280;40488;48.558;18.150;2024-03-29T16:15:08;98715.44;;;17.17;64.63
54592;BME280;40488;48.558;18.150;2024-03-29T16:17:38;98715.69;;;17.11;64.83
54592;BME280;40488;48.558;18.150;2024-03-29T16:20:07;98712.31;;;17.09;65.01
54592;BME280;40488;48.558;18.150;2024-03-29T16:22:34;98697.25;;;17.00;64.79
54592;BME280;40488;48.558;18.150;2024-03-29T16:25:03;98715.69;;;17.11;64.87
54592;BME280;40488;48.558;18.150;2024-03-29T16:27:29;98714.72;;;17.14;64.39
54592;BME280;40488;48.558;18.150;2024-03-29T16:29:57;98716.31;;;17.16;64.25
54592;BME280;40488;48.558;18.150;2024-03-29T16:32:24;98709.56;;;17.14;64.14
54592;BME280;40488;48.558;18.150;2024-03-29T16:34:53;98701.16;;;17.09;64.49
54592;BME280;40488;48.558;18.150;2024-03-29T16:37:22;98707.28;;;17.06;64.29
54592;BME280;40488;48.558;18.150;2024-03-29T16:39:50;98703.25;;;17.01;64.43
54592;BME280;40488;48.558;18.150;2024-03-29T16:42:17;98705.94;;;16.98;64.54
54592;BME280;40488;48.558;18.150;2024-03-29T16:44:44;98711.31;;;16.93;65.00
54592;BME280;40488;48.558;18.150;2024-03-29T16:47:11;98703.78;;;16.89;65.04
54592;BME280;40488;48.558;18.150;2024-03-29T16:49:39;98709.88;;;16.86;65.24
54592;BME280;40488;48.558;18.150;2024-03-29T16:52:07;98689.97;;;16.69;65.24
54592;BME280;40488;48.558;18.150;2024-03-29T16:54:34;98688.34;;;16.67;65.49
54592;BME280;40488;48.558;18.150;2024-03-29T16:57:04;98708.59;;;16.76;65.67
54592;BME280;40488;48.558;18.150;2024-03-29T16:59:32;98701.91;;;16.72;66.00
54592;BME280;40488;48.558;18.150;2024-03-29T17:01:59;98691.81;;;16.66;66.24
54592;BME280;40488;48.558;18.150;2024-03-29T17:04:28;98690.16;;;16.65;66.45
54592;BME280;40488;48.558;18.150;2024-03-29T17:06:54;98688.59;;;16.61;66.75
54592;BME280;40488;48.558;18.150;2024-03-29T17:09:42;98689.56;;;16.58;66.69
54592;BME280;40488;48.558;18.150;2024-03-29T17:12:12;98697.47;;;16.54;66.98
54592;BME280;40488;48.558;18.150;2024-03-29T17:14:41;98678.91;;;16.46;66.60
54592;BME280;40488;48.558;18.150;2024-03-29T17:17:08;98696.69;;;16.52;67.02
54592;BME280;40488;48.558;18.150;2024-03-29T17:19:36;98699.34;;;16.49;66.75
54592;BME280;40488;48.558;18.150;2024-03-29T17:22:03;98702.97;;;16.45;67.03
54592;BME280;40488;48.558;18.150;2024-03-29T17:24:31;98693.75;;;16.39;67.44
54592;BME280;40488;48.558;18.150;2024-03-29T17:26:59;98691.34;;;16.35;67.84
54592;BME280;40488;48.558;18.150;2024-03-29T17:29:27;98689.91;;;16.28;67.90
54592;BME280;40488;48.558;18.150;2024-03-29T17:31:55;98690.84;;;16.27;68.04
54592;BME280;40488;48.558;18.150;2024-03-29T17:34:23;98685.69;;;16.27;67.87
54592;BME280;40488;48.558;18.150;2024-03-29T17:36:50;98686.56;;;16.26;67.80
54592;BME280;40488;48.558;18.150;2024-03-29T17:39:17;98696.97;;;16.23;68.24
54592;BME280;40488;48.558;18.150;2024-03-29T17:41:45;98695.19;;;16.25;68.01
54592;BME280;40488;48.558;18.150;2024-03-29T17:44:15;98700.47;;;16.22;68.09
54592;BME280;40488;48.558;18.150;2024-03-29T17:46:42;98695.56;;;16.16;67.97
54592;BME280;40488;48.558;18.150;2024-03-29T17:49:10;98691.84;;;16.23;67.71
54592;BME280;40488;48.558;18.150;2024-03-29T17:51:37;98696.88;;;16.26;67.35
54592;BME280;40488;48.558;18.150;2024-03-29T17:54:04;98704.50;;;16.29;67.60
54592;BME280;40488;48.558;18.150;2024-03-29T17:56:31;98712.31;;;16.26;67.43
54592;BME280;40488;48.558;18.150;2024-03-29T17:58:59;98711.56;;;16.24;67.42
54592;BME280;40488;48.558;18.150;2024-03-29T18:01:27;98705.47;;;16.25;67.00
54592;BME280;40488;48.558;18.150;2024-03-29T18:03:55;98701.94;;;16.27;66.71
54592;BME280;40488;48.558;18.150;2024-03-29T18:06:22;98704.59;;;16.26;66.92
54592;BME280;40488;48.558;18.150;2024-03-29T18:08:50;98710.59;;;16.26;66.35
54592;BME280;40488;48.558;18.150;2024-03-29T18:11:17;98712.13;;;16.30;66.37
54592;BME280;40488;48.558;18.150;2024-03-29T18:13:45;98717.28;;;16.30;66.30
54592;BME280;40488;48.558;18.150;2024-03-29T18:16:13;98721.59;;;16.30;66.50
54592;BME280;40488;48.558;18.150;2024-03-29T18:18:46;98715.56;;;16.31;66.12
54592;BME280;40488;48.558;18.150;2024-03-29T18:21:14;98719.16;;;16.27;66.05
54592;BME280;40488;48.558;18.150;2024-03-29T18:23:42;98717.47;;;16.26;66.37
54592;BME280;40488;48.558;18.150;2024-03-29T18:26:08;98716.81;;;16.21;66.44
54592;BME280;40488;48.558;18.150;2024-03-29T18:28:36;98721.19;;;16.19;66.31
54592;BME280;40488;48.558;18.150;2024-03-29T18:31:03;98728.00;;;16.20;65.91
54592;BME280;40488;48.558;18.150;2024-03-29T18:33:35;98726.03;;;16.26;65.66
54592;BME280;40488;48.558;18.150;2024-03-29T18:36:04;98723.22;;;16.32;65.17
54592;BME280;40488;48.558;18.150;2024-03-29T18:38:33;98717.94;;;16.35;64.91
54592;BME280;40488;48.558;18.150;2024-03-29T18:41:01;98717.88;;;16.37;64.98
54592;BME280;40488;48.558;18.150;2024-03-29T18:43:29;98726.56;;;16.34;65.07
54592;BME280;40488;48.558;18.150;2024-03-29T18:45:55;98722.13;;;16.38;64.65
54592;BME280;40488;48.558;18.150;2024-03-29T18:48:24;98712.72;;;16.37;64.77
54592;BME280;40488;48.558;18.150;2024-03-29T18:50:53;98711.94;;;16.35;64.97
54592;BME280;40488;48.558;18.150;2024-03-29T18:53:22;98711.38;;;16.28;64.98
54592;BME280;40488;48.558;18.150;2024-03-29T18:55:59;98717.22;;;16.32;64.79
54592;BME280;40488;48.558;18.150;2024-03-29T18:58:27;98718.66;;;16.39;64.53
54592;BME280;40488;48.558;18.150;2024-03-29T19:00:54;98727.88;;;16.44;64.05
54592;BME280;40488;48.558;18.150;2024-03-29T19:03:23;98721.78;;;16.47;64.03
54592;BME280;40488;48.558;18.150;2024-03-29T19:05:50;98720.22;;;16.43;63.84
54592;BME280;40488;48.558;18.150;2024-03-29T19:08:18;98726.34;;;16.40;64.19
54592;BME280;40488;48.558;18.150;2024-03-29T19:10:46;98718.78;;;16.36;64.16
54592;BME280;40488;48.558;18.150;2024-03-29T19:13:13;98724.16;;;16.30;64.23
54592;BME280;40488;48.558;18.150;2024-03-29T19:15:40;98721.66;;;16.28;64.50
54592;BME280;40488;48.558;18.150;2024-03-29T19:18:08;98717.59;;;16.23;64.40
54592;BME280;40488;48.558;18.150;2024-03-29T19:20:38;98718.53;;;16.20;64.58
54592;BME280;40488;48.558;18.150;2024-03-29T19:23:05;98728.16;;;16.15;64.95
54592;BME280;40488;48.558;18.150;2024-03-29T19:25:33;98716.22;;;16.14;64.66
54592;BME280;40488;48.558;18.150;2024-03-29T19:28:01;98718.78;;;16.14;64.70
54592;BME280;40488;48.558;18.150;2024-03-29T19:30:29;98729.94;;;16.15;64.79
54592;BME280;40488;48.558;18.150;2024-03-29T19:32:56;98725.75;;;16.12;64.65
54592;BME280;40488;48.558;18.150;2024-03-29T19:35:24;98706.31;;;16.03;64.70
54592;BME280;40488;48.558;18.150;2024-03-29T19:37:51;98730.03;;;16.12;64.55
54592;BME280;40488;48.558;18.150;2024-03-29T19:40:20;98724.91;;;16.12;64.80
54592;BME280;40488;48.558;18.150;2024-03-29T19:42:46;98723.28;;;16.09;64.81
54592;BME280;40488;48.558;18.150;2024-03-29T19:45:16;98713.16;;;16.04;64.88
54592;BME280;40488;48.558;18.150;2024-03-29T19:47:45;98713.19;;;16.03;64.90
54592;BME280;40488;48.558;18.150;2024-03-29T19:50:17;98719.28;;;16.00;64.89
54592;BME280;40488;48.558;18.150;2024-03-29T19:52:44;98723.81;;;15.95;64.86